sensor_id;sensor_type;location;lat;lon;timestamp;temperature;humidity
9776;DHT22;4927;52.472;13.108;2023-06-19T00:00:33;16.10;99.90
9776;DHT22;4927;52.472;13.108;2023-06-19T00:01:34;16.10;99.90
9776;DHT22;4927;52.472;13.108;2023-06-19T00:02:37;16.10;99.90
9776;DHT22;4927;52.472;13.108;2023-06-19T00:03:39;16.10;99.90
9776;DHT22;4927;52.472;13.108;2023-06-19T00:04:40;16.10;99.90
9776;DHT22;4927;52.472;13.108;2023-06-19T00:05:42;16.10;99.90
9776;DHT22;4927;52.472;13.108;2023-06-19T00:06:44;16.10;99.90
9776;DHT22;4927;52.472;13.108;2023-06-19T00:07:46;16.10;99.90
9776;DHT22;4927;52.472;13.108;2023-06-19T00:08:48;16.10;99.90
9776;DHT22;4927;52.472;13.108;2023-06-19T00:09:50;16.10;99.90
9776;DHT22;4927;52.472;13.108;2023-06-19T00:10:52;16.10;99.90
9776;DHT22;4927;52.472;13.108;2023-06-19T00:11:54;16.10;99.90
9776;DHT22;4927;52.472;13.108;2023-06-19T00:12:55;16.10;99.90
9776;DHT22;4927;52.472;13.108;2023-06-19T00:13:57;16.10;99.90
9776;DHT22;4927;52.472;13.108;2023-06-19T00:15:00;16.20;99.90
9776;DHT22;4927;52.472;13.108;2023-06-19T00:16:02;16.20;99.90
9776;DHT22;4927;52.472;13.108;2023-06-19T00:17:04;16.20;99.90
9776;DHT22;4927;52.472;13.108;2023-06-19T00:18:05;16.20;99.90
9776;DHT22;4927;52.472;13.108;2023-06-19T00:19:09;16.20;99.90
9776;DHT22;4927;52.472;13.108;2023-06-19T00:20:09;16.20;99.90
9776;DHT22;4927;52.472;13.108;2023-06-19T00:21:11;16.20;99.90
9776;DHT22;4927;52.472;13.108;2023-06-19T00:22:13;16.30;99.90
9776;DHT22;4927;52.472;13.108;2023-06-19T00:23:15;16.30;99.90
9776;DHT22;4927;52.472;13.108;2023-06-19T00:24:17;16.30;99.90
9776;DHT22;4927;52.472;13.108;2023-06-19T00:25:19;16.30;99.90
9776;DHT22;4927;52.472;13.108;2023-06-19T00:26:21;16.30;99.90
9776;DHT22;4927;52.472;13.108;2023-06-19T00:27:24;16.30;99.90
9776;DHT22;4927;52.472;13.108;2023-06-19T00:28:26;16.30;99.90
9776;DHT22;4927;52.472;13.108;2023-06-19T00:29:29;16.40;99.90
9776;DHT22;4927;52.472;13.108;2023-06-19T00:30:31;16.40;99.90
9776;DHT22;4927;52.472;13.108;2023-06-19T00:31:33;16.40;99.90
9776;DHT22;4927;52.472;13.108;2023-06-19T00:32:34;16.40;99.90
9776;DHT22;4927;52.472;13.108;2023-06-19T00:33:36;16.40;99.90
9776;DHT22;4927;52.472;13.108;2023-06-19T00:34:38;16.40;99.90
9776;DHT22;4927;52.472;13.108;2023-06-19T00:35:40;16.40;99.90
9776;DHT22;4927;52.472;13.108;2023-06-19T00:36:41;16.40;99.90
9776;DHT22;4927;52.472;13.108;2023-06-19T00:37:43;16.50;99.90
9776;DHT22;4927;52.472;13.108;2023-06-19T00:38:45;16.50;99.90
9776;DHT22;4927;52.472;13.108;2023-06-19T00:39:47;16.50;99.90
9776;DHT22;4927;52.472;13.108;2023-06-19T00:40:48;16.50;99.90
9776;DHT22;4927;52.472;13.108;2023-06-19T00:41:51;16.50;99.90
9776;DHT22;4927;52.472;13.108;2023-06-19T00:42:53;16.50;99.90
9776;DHT22;4927;52.472;13.108;2023-06-19T00:43:56;16.50;99.90
9776;DHT22;4927;52.472;13.108;2023-06-19T00:44:57;16.50;99.90
9776;DHT22;4927;52.472;13.108;2023-06-19T00:45:59;16.50;99.90
9776;DHT22;4927;52.472;13.108;2023-06-19T00:47:01;16.50;99.90
9776;DHT22;4927;52.472;13.108;2023-06-19T00:48:03;16.50;99.90
9776;DHT22;4927;52.472;13.108;2023-06-19T00:49:06;16.50;99.90
9776;DHT22;4927;52.472;13.108;2023-06-19T00:50:08;16.50;99.90
9776;DHT22;4927;52.472;13.108;2023-06-19T00:51:10;16.50;99.90
9776;DHT22;4927;52.472;13.108;2023-06-19T00:52:12;16.50;99.90
9776;DHT22;4927;52.472;13.108;2023-06-19T00:53:14;16.50;99.90
9776;DHT22;4927;52.472;13.108;2023-06-19T00:54:16;16.50;99.90
9776;DHT22;4927;52.472;13.108;2023-06-19T00:55:17;16.50;99.90
9776;DHT22;4927;52.472;13.108;2023-06-19T00:56:20;16.50;99.90
9776;DHT22;4927;52.472;13.108;2023-06-19T00:57:22;16.50;99.90
9776;DHT22;4927;52.472;13.108;2023-06-19T00:58:24;16.50;99.90
9776;DHT22;4927;52.472;13.108;2023-06-19T00:59:26;16.50;99.90
9776;DHT22;4927;52.472;13.108;2023-06-19T01:00:27;16.50;99.90
9776;DHT22;4927;52.472;13.108;2023-06-19T01:01:30;16.50;99.90
9776;DHT22;4927;52.472;13.108;2023-06-19T01:02:31;16.50;99.90
9776;DHT22;4927;52.472;13.108;2023-06-19T01:03:33;16.50;99.90
9776;DHT22;4927;52.472;13.108;2023-06-19T01:04:35;16.50;99.90
9776;DHT22;4927;52.472;13.108;2023-06-19T01:05:37;16.50;99.90
9776;DHT22;4927;52.472;13.108;2023-06-19T01:06:53;16.50;99.90
9776;DHT22;4927;52.472;13.108;2023-06-19T01:08:04;16.50;99.90
9776;DHT22;4927;52.472;13.108;2023-06-19T01:09:08;16.40;99.90
9776;DHT22;4927;52.472;13.108;2023-06-19T01:10:11;16.40;99.90
9776;DHT22;4927;52.472;13.108;2023-06-19T01:11:12;16.40;99.90
9776;DHT22;4927;52.472;13.108;2023-06-19T01:12:17;16.40;99.90
9776;DHT22;4927;52.472;13.108;2023-06-19T01:13:41;16.30;99.90
9776;DHT22;4927;52.472;13.108;2023-06-19T01:14:56;16.30;99.90
9776;DHT22;4927;52.472;13.108;2023-06-19T01:15:55;16.30;99.90
9776;DHT22;4927;52.472;13.108;2023-06-19T01:16:57;16.30;99.90
9776;DHT22;4927;52.472;13.108;2023-06-19T01:17:58;16.20;99.90
9776;DHT22;4927;52.472;13.108;2023-06-19T01:19:00;16.20;99.90
9776;DHT22;4927;52.472;13.108;2023-06-19T01:20:02;16.20;99.90
9776;DHT22;4927;52.472;13.108;2023-06-19T01:21:13;16.20;99.90
9776;DHT22;4927;52.472;13.108;2023-06-19T01:22:28;16.20;99.90
9776;DHT22;4927;52.472;13.108;2023-06-19T01:23:36;16.20;99.90
9776;DHT22;4927;52.472;13.108;2023-06-19T01:24:37;16.20;99.90
9776;DHT22;4927;52.472;13.108;2023-06-19T01:25:39;16.20;99.90
9776;DHT22;4927;52.472;13.108;2023-06-19T01:26:41;16.20;99.90
9776;DHT22;4927;52.472;13.108;2023-06-19T01:27:43;16.30;99.90
9776;DHT22;4927;52.472;13.108;2023-06-19T01:28:45;16.20;99.90
9776;DHT22;4927;52.472;13.108;2023-06-19T01:29:47;16.20;99.90
9776;DHT22;4927;52.472;13.108;2023-06-19T01:30:49;16.20;99.90
9776;DHT22;4927;52.472;13.108;2023-06-19T01:31:57;16.20;99.90
9776;DHT22;4927;52.472;13.108;2023-06-19T01:32:58;16.20;99.90
9776;DHT22;4927;52.472;13.108;2023-06-19T01:33:58;16.20;99.90
9776;DHT22;4927;52.472;13.108;2023-06-19T01:35:00;16.20;99.90
9776;DHT22;4927;52.472;13.108;2023-06-19T01:36:02;16.20;99.90
9776;DHT22;4927;52.472;13.108;2023-06-19T01:37:04;16.20;99.90
9776;DHT22;4927;52.472;13.108;2023-06-19T01:38:06;16.20;99.90
9776;DHT22;4927;52.472;13.108;2023-06-19T01:39:08;16.20;99.90
9776;DHT22;4927;52.472;13.108;2023-06-19T01:40:10;16.30;99.90
9776;DHT22;4927;52.472;13.108;2023-06-19T01:41:12;16.30;99.90
9776;DHT22;4927;52.472;13.108;2023-06-19T01:42:15;16.30;99.90
9776;DHT22;4927;52.472;13.108;2023-06-19T01:43:16;16.30;99.90
9776;DHT22;4927;52.472;13.108;2023-06-19T01:44:18;16.30;99.90
9776;DHT22;4927;52.472;13.108;2023-06-19T01:45:21;16.40;99.90
9776;DHT22;4927;52.472;13.108;2023-06-19T01:46:22;16.40;99.90
9776;DHT22;4927;52.472;13.108;2023-06-19T01:47:24;16.40;99.90
9776;DHT22;4927;52.472;13.108;2023-06-19T01:48:26;16.40;99.90
9776;DHT22;4927;52.472;13.108;2023-06-19T01:49:28;16.40;99.90
9776;DHT22;4927;52.472;13.108;2023-06-19T01:50:29;16.40;99.90
9776;DHT22;4927;52.472;13.108;2023-06-19T01:51:31;16.40;99.90
9776;DHT22;4927;52.472;13.108;2023-06-19T01:52:33;16.50;99.90
9776;DHT22;4927;52.472;13.108;2023-06-19T01:53:35;16.50;99.90
9776;DHT22;4927;52.472;13.108;2023-06-19T01:54:37;16.50;99.90
9776;DHT22;4927;52.472;13.108;2023-06-19T01:55:38;16.50;99.90
9776;DHT22;4927;52.472;13.108;2023-06-19T01:56:40;16.50;99.90
9776;DHT22;4927;52.472;13.108;2023-06-19T01:57:42;16.50;99.90
9776;DHT22;4927;52.472;13.108;2023-06-19T01:58:44;16.50;99.90
9776;DHT22;4927;52.472;13.108;2023-06-19T01:59:45;16.50;99.90
9776;DHT22;4927;52.472;13.108;2023-06-19T02:00:47;16.50;99.90
9776;DHT22;4927;52.472;13.108;2023-06-19T02:01:49;16.50;99.90
9776;DHT22;4927;52.472;13.108;2023-06-19T02:02:51;16.50;99.90
9776;DHT22;4927;52.472;13.108;2023-06-19T02:03:59;16.50;99.90
9776;DHT22;4927;52.472;13.108;2023-06-19T02:05:01;16.50;99.90
9776;DHT22;4927;52.472;13.108;2023-06-19T02:06:03;16.50;99.90
9776;DHT22;4927;52.472;13.108;2023-06-19T02:07:06;16.50;99.90
9776;DHT22;4927;52.472;13.108;2023-06-19T02:08:07;16.50;99.90
9776;DHT22;4927;52.472;13.108;2023-06-19T02:09:09;16.50;99.90
9776;DHT22;4927;52.472;13.108;2023-06-19T02:10:11;16.50;99.90
9776;DHT22;4927;52.472;13.108;2023-06-19T02:11:13;16.50;99.90
9776;DHT22;4927;52.472;13.108;2023-06-19T02:12:14;16.50;99.90
9776;DHT22;4927;52.472;13.108;2023-06-19T02:13:17;16.50;99.90
9776;DHT22;4927;52.472;13.108;2023-06-19T02:14:19;16.50;99.90
9776;DHT22;4927;52.472;13.108;2023-06-19T02:15:20;16.50;99.90
9776;DHT22;4927;52.472;13.108;2023-06-19T02:16:23;16.50;99.90
9776;DHT22;4927;52.472;13.108;2023-06-19T02:17:24;16.50;99.90
9776;DHT22;4927;52.472;13.108;2023-06-19T02:18:27;16.50;99.90
9776;DHT22;4927;52.472;13.108;2023-06-19T02:19:29;16.50;99.90
9776;DHT22;4927;52.472;13.108;2023-06-19T02:20:30;16.50;99.90
9776;DHT22;4927;52.472;13.108;2023-06-19T02:21:33;16.50;99.90
9776;DHT22;4927;52.472;13.108;2023-06-19T02:22:35;16.50;99.90
9776;DHT22;4927;52.472;13.108;2023-06-19T02:23:36;16.50;99.90
9776;DHT22;4927;52.472;13.108;2023-06-19T02:24:38;16.50;99.90
9776;DHT22;4927;52.472;13.108;2023-06-19T02:25:40;16.50;99.90
9776;DHT22;4927;52.472;13.108;2023-06-19T02:26:43;16.50;99.90
9776;DHT22;4927;52.472;13.108;2023-06-19T02:27:44;16.50;99.90
9776;DHT22;4927;52.472;13.108;2023-06-19T02:28:46;16.50;99.90
9776;DHT22;4927;52.472;13.108;2023-06-19T02:29:48;16.50;99.90
9776;DHT22;4927;52.472;13.108;2023-06-19T02:30:50;16.50;99.90
9776;DHT22;4927;52.472;13.108;2023-06-19T02:31:52;16.50;99.90
9776;DHT22;4927;52.472;13.108;2023-06-19T02:32:53;16.50;99.90
9776;DHT22;4927;52.472;13.108;2023-06-19T02:33:55;16.50;99.90
9776;DHT22;4927;52.472;13.108;2023-06-19T02:34:57;16.50;99.90
9776;DHT22;4927;52.472;13.108;2023-06-19T02:35:59;16.40;99.90
9776;DHT22;4927;52.472;13.108;2023-06-19T02:37:00;16.50;99.90
9776;DHT22;4927;52.472;13.108;2023-06-19T02:38:02;16.50;99.90
9776;DHT22;4927;52.472;13.108;2023-06-19T02:39:04;16.50;99.90
9776;DHT22;4927;52.472;13.108;2023-06-19T02:40:07;16.40;99.90
9776;DHT22;4927;52.472;13.108;2023-06-19T02:41:09;16.40;99.90
9776;DHT22;4927;52.472;13.108;2023-06-19T02:42:11;16.50;99.90
9776;DHT22;4927;52.472;13.108;2023-06-19T02:43:13;16.50;99.90
9776;DHT22;4927;52.472;13.108;2023-06-19T02:44:14;16.50;99.90
9776;DHT22;4927;52.472;13.108;2023-06-19T02:45:16;16.50;99.90
9776;DHT22;4927;52.472;13.108;2023-06-19T02:46:18;16.50;99.90
9776;DHT22;4927;52.472;13.108;2023-06-19T02:47:20;16.50;99.90
9776;DHT22;4927;52.472;13.108;2023-06-19T02:48:21;16.50;99.90
9776;DHT22;4927;52.472;13.108;2023-06-19T02:49:23;16.50;99.90
9776;DHT22;4927;52.472;13.108;2023-06-19T02:50:25;16.50;99.90
9776;DHT22;4927;52.472;13.108;2023-06-19T02:51:27;16.50;99.90
9776;DHT22;4927;52.472;13.108;2023-06-19T02:52:29;16.50;99.90
9776;DHT22;4927;52.472;13.108;2023-06-19T02:53:31;16.50;99.90
9776;DHT22;4927;52.472;13.108;2023-06-19T02:54:33;16.50;99.90
9776;DHT22;4927;52.472;13.108;2023-06-19T02:55:34;16.50;99.90
9776;DHT22;4927;52.472;13.108;2023-06-19T02:56:37;16.50;99.90
9776;DHT22;4927;52.472;13.108;2023-06-19T02:57:38;16.50;99.90
9776;DHT22;4927;52.472;13.108;2023-06-19T02:58:40;16.50;99.90
9776;DHT22;4927;52.472;13.108;2023-06-19T02:59:42;16.50;99.90
9776;DHT22;4927;52.472;13.108;2023-06-19T03:00:45;16.50;99.90
9776;DHT22;4927;52.472;13.108;2023-06-19T03:01:46;16.50;99.90
9776;DHT22;4927;52.472;13.108;2023-06-19T03:02:48;16.50;99.90
9776;DHT22;4927;52.472;13.108;2023-06-19T03:03:50;16.50;99.90
9776;DHT22;4927;52.472;13.108;2023-06-19T03:04:52;16.50;99.90
9776;DHT22;4927;52.472;13.108;2023-06-19T03:05:54;16.50;99.90
9776;DHT22;4927;52.472;13.108;2023-06-19T03:06:55;16.60;99.90
9776;DHT22;4927;52.472;13.108;2023-06-19T03:07:57;16.60;99.90
9776;DHT22;4927;52.472;13.108;2023-06-19T03:08:59;16.60;99.90
9776;DHT22;4927;52.472;13.108;2023-06-19T03:10:00;16.60;99.90
9776;DHT22;4927;52.472;13.108;2023-06-19T03:11:02;16.60;99.90
9776;DHT22;4927;52.472;13.108;2023-06-19T03:12:06;16.60;99.90
9776;DHT22;4927;52.472;13.108;2023-06-19T03:13:10;16.60;99.90
9776;DHT22;4927;52.472;13.108;2023-06-19T03:14:11;16.60;99.90
9776;DHT22;4927;52.472;13.108;2023-06-19T03:15:13;16.60;99.90
9776;DHT22;4927;52.472;13.108;2023-06-19T03:16:15;16.70;99.90
9776;DHT22;4927;52.472;13.108;2023-06-19T03:17:17;16.70;99.90
9776;DHT22;4927;52.472;13.108;2023-06-19T03:18:19;16.70;99.90
9776;DHT22;4927;52.472;13.108;2023-06-19T03:19:21;16.70;99.90
9776;DHT22;4927;52.472;13.108;2023-06-19T03:20:22;16.70;99.90
9776;DHT22;4927;52.472;13.108;2023-06-19T03:21:24;16.70;99.90
9776;DHT22;4927;52.472;13.108;2023-06-19T03:22:26;16.70;99.90
9776;DHT22;4927;52.472;13.108;2023-06-19T03:23:28;16.70;99.90
9776;DHT22;4927;52.472;13.108;2023-06-19T03:24:30;16.80;99.90
9776;DHT22;4927;52.472;13.108;2023-06-19T03:25:32;16.80;99.90
9776;DHT22;4927;52.472;13.108;2023-06-19T03:26:34;16.80;99.90
9776;DHT22;4927;52.472;13.108;2023-06-19T03:27:36;16.80;99.90
9776;DHT22;4927;52.472;13.108;2023-06-19T03:28:38;16.80;99.90
9776;DHT22;4927;52.472;13.108;2023-06-19T03:29:41;16.90;99.90
9776;DHT22;4927;52.472;13.108;2023-06-19T03:32:34;16.90;99.90
9776;DHT22;4927;52.472;13.108;2023-06-19T03:33:36;16.90;99.90
9776;DHT22;4927;52.472;13.108;2023-06-19T03:34:38;16.90;99.90
9776;DHT22;4927;52.472;13.108;2023-06-19T03:35:40;17.00;99.90
9776;DHT22;4927;52.472;13.108;2023-06-19T03:36:41;17.00;99.90
9776;DHT22;4927;52.472;13.108;2023-06-19T03:37:43;17.00;99.90
9776;DHT22;4927;52.472;13.108;2023-06-19T03:38:44;17.00;99.90
9776;DHT22;4927;52.472;13.108;2023-06-19T03:39:47;17.00;99.90
9776;DHT22;4927;52.472;13.108;2023-06-19T03:40:48;17.00;99.90
9776;DHT22;4927;52.472;13.108;2023-06-19T03:41:50;17.10;99.90
9776;DHT22;4927;52.472;13.108;2023-06-19T03:42:52;17.10;99.90
9776;DHT22;4927;52.472;13.108;2023-06-19T03:43:54;17.10;99.90
9776;DHT22;4927;52.472;13.108;2023-06-19T03:44:56;17.10;99.90
9776;DHT22;4927;52.472;13.108;2023-06-19T03:45:58;17.10;99.90
9776;DHT22;4927;52.472;13.108;2023-06-19T03:47:00;17.10;99.90
9776;DHT22;4927;52.472;13.108;2023-06-19T03:48:02;17.20;99.90
9776;DHT22;4927;52.472;13.108;2023-06-19T03:49:03;17.10;99.90
9776;DHT22;4927;52.472;13.108;2023-06-19T03:50:06;17.20;99.90
9776;DHT22;4927;52.472;13.108;2023-06-19T03:51:09;17.20;99.90
9776;DHT22;4927;52.472;13.108;2023-06-19T03:52:11;17.20;99.90
9776;DHT22;4927;52.472;13.108;2023-06-19T03:53:13;17.20;99.90
9776;DHT22;4927;52.472;13.108;2023-06-19T03:54:15;17.20;99.90
9776;DHT22;4927;52.472;13.108;2023-06-19T03:55:17;17.20;99.90
9776;DHT22;4927;52.472;13.108;2023-06-19T03:56:19;17.20;99.90
9776;DHT22;4927;52.472;13.108;2023-06-19T03:57:20;17.20;99.90
9776;DHT22;4927;52.472;13.108;2023-06-19T03:58:23;17.30;99.90
9776;DHT22;4927;52.472;13.108;2023-06-19T03:59:24;17.20;99.90
9776;DHT22;4927;52.472;13.108;2023-06-19T04:00:26;17.30;99.90
9776;DHT22;4927;52.472;13.108;2023-06-19T04:01:27;17.30;99.90
9776;DHT22;4927;52.472;13.108;2023-06-19T04:02:30;17.30;99.90
9776;DHT22;4927;52.472;13.108;2023-06-19T04:03:31;17.30;99.90
9776;DHT22;4927;52.472;13.108;2023-06-19T04:04:33;17.30;99.90
9776;DHT22;4927;52.472;13.108;2023-06-19T04:05:35;17.30;99.90
9776;DHT22;4927;52.472;13.108;2023-06-19T04:06:37;17.30;99.90
9776;DHT22;4927;52.472;13.108;2023-06-19T04:07:39;17.30;99.90
9776;DHT22;4927;52.472;13.108;2023-06-19T04:08:42;17.40;99.90
9776;DHT22;4927;52.472;13.108;2023-06-19T04:09:43;17.30;99.90
9776;DHT22;4927;52.472;13.108;2023-06-19T04:10:45;17.30;99.90
9776;DHT22;4927;52.472;13.108;2023-06-19T04:11:47;17.40;99.90
9776;DHT22;4927;52.472;13.108;2023-06-19T04:12:48;17.40;99.90
9776;DHT22;4927;52.472;13.108;2023-06-19T04:13:50;17.40;99.90
9776;DHT22;4927;52.472;13.108;2023-06-19T04:14:52;17.40;99.90
9776;DHT22;4927;52.472;13.108;2023-06-19T04:15:54;17.40;99.90
9776;DHT22;4927;52.472;13.108;2023-06-19T04:16:57;17.40;99.90
9776;DHT22;4927;52.472;13.108;2023-06-19T04:17:59;17.50;99.90
9776;DHT22;4927;52.472;13.108;2023-06-19T04:19:01;17.50;99.90
9776;DHT22;4927;52.472;13.108;2023-06-19T04:20:04;17.50;99.90
9776;DHT22;4927;52.472;13.108;2023-06-19T04:21:11;17.50;99.90
9776;DHT22;4927;52.472;13.108;2023-06-19T04:22:14;17.50;99.90
9776;DHT22;4927;52.472;13.108;2023-06-19T04:23:16;17.50;99.90
9776;DHT22;4927;52.472;13.108;2023-06-19T04:24:17;17.50;99.90
9776;DHT22;4927;52.472;13.108;2023-06-19T04:25:19;17.60;99.90
9776;DHT22;4927;52.472;13.108;2023-06-19T04:26:21;17.60;99.90
9776;DHT22;4927;52.472;13.108;2023-06-19T04:27:23;17.60;99.90
9776;DHT22;4927;52.472;13.108;2023-06-19T04:28:25;17.70;99.90
9776;DHT22;4927;52.472;13.108;2023-06-19T04:29:27;17.70;99.90
9776;DHT22;4927;52.472;13.108;2023-06-19T04:30:29;17.60;99.90
9776;DHT22;4927;52.472;13.108;2023-06-19T04:31:31;17.70;99.90
9776;DHT22;4927;52.472;13.108;2023-06-19T04:32:33;17.70;99.90
9776;DHT22;4927;52.472;13.108;2023-06-19T04:33:34;17.70;99.90
9776;DHT22;4927;52.472;13.108;2023-06-19T04:34:36;17.70;99.90
9776;DHT22;4927;52.472;13.108;2023-06-19T04:35:37;17.70;99.90
9776;DHT22;4927;52.472;13.108;2023-06-19T04:36:39;17.70;99.90
9776;DHT22;4927;52.472;13.108;2023-06-19T04:37:40;17.70;99.90
9776;DHT22;4927;52.472;13.108;2023-06-19T04:38:44;17.80;99.90
9776;DHT22;4927;52.472;13.108;2023-06-19T04:39:45;17.70;99.90
9776;DHT22;4927;52.472;13.108;2023-06-19T04:40:46;17.80;99.90
9776;DHT22;4927;52.472;13.108;2023-06-19T04:41:48;17.80;99.90
9776;DHT22;4927;52.472;13.108;2023-06-19T04:42:50;17.80;99.90
9776;DHT22;4927;52.472;13.108;2023-06-19T04:43:53;17.80;99.90
9776;DHT22;4927;52.472;13.108;2023-06-19T04:44:54;17.80;99.90
9776;DHT22;4927;52.472;13.108;2023-06-19T04:45:56;17.80;99.90
9776;DHT22;4927;52.472;13.108;2023-06-19T04:46:58;17.80;99.90
9776;DHT22;4927;52.472;13.108;2023-06-19T04:47:59;17.80;99.90
9776;DHT22;4927;52.472;13.108;2023-06-19T04:49:01;17.80;99.90
9776;DHT22;4927;52.472;13.108;2023-06-19T04:50:03;17.80;99.90
9776;DHT22;4927;52.472;13.108;2023-06-19T04:51:05;17.80;99.90
9776;DHT22;4927;52.472;13.108;2023-06-19T04:52:07;17.80;99.90
9776;DHT22;4927;52.472;13.108;2023-06-19T04:53:09;17.80;99.90
9776;DHT22;4927;52.472;13.108;2023-06-19T04:54:19;17.90;99.90
9776;DHT22;4927;52.472;13.108;2023-06-19T04:55:20;17.90;99.90
9776;DHT22;4927;52.472;13.108;2023-06-19T04:56:22;17.90;99.90
9776;DHT22;4927;52.472;13.108;2023-06-19T04:57:24;17.90;99.90
9776;DHT22;4927;52.472;13.108;2023-06-19T04:58:26;17.90;99.90
9776;DHT22;4927;52.472;13.108;2023-06-19T04:59:28;17.90;99.90
9776;DHT22;4927;52.472;13.108;2023-06-19T05:00:30;17.90;99.90
9776;DHT22;4927;52.472;13.108;2023-06-19T05:01:32;18.00;99.90
9776;DHT22;4927;52.472;13.108;2023-06-19T05:02:34;17.90;99.90
9776;DHT22;4927;52.472;13.108;2023-06-19T05:03:35;18.00;99.90
9776;DHT22;4927;52.472;13.108;2023-06-19T05:04:37;18.00;99.90
9776;DHT22;4927;52.472;13.108;2023-06-19T05:05:40;18.00;99.90
9776;DHT22;4927;52.472;13.108;2023-06-19T05:06:41;18.00;99.90
9776;DHT22;4927;52.472;13.108;2023-06-19T05:07:44;18.00;99.90
9776;DHT22;4927;52.472;13.108;2023-06-19T05:08:45;18.00;99.90
9776;DHT22;4927;52.472;13.108;2023-06-19T05:09:47;18.00;99.90
9776;DHT22;4927;52.472;13.108;2023-06-19T05:10:49;18.00;99.90
9776;DHT22;4927;52.472;13.108;2023-06-19T05:11:50;18.00;99.90
9776;DHT22;4927;52.472;13.108;2023-06-19T05:12:52;18.00;99.90
9776;DHT22;4927;52.472;13.108;2023-06-19T05:13:54;18.10;99.90
9776;DHT22;4927;52.472;13.108;2023-06-19T05:14:56;18.10;99.90
9776;DHT22;4927;52.472;13.108;2023-06-19T05:15:57;18.10;99.90
9776;DHT22;4927;52.472;13.108;2023-06-19T05:16:59;18.10;99.90
9776;DHT22;4927;52.472;13.108;2023-06-19T05:18:01;18.10;99.90
9776;DHT22;4927;52.472;13.108;2023-06-19T05:19:03;18.10;99.90
9776;DHT22;4927;52.472;13.108;2023-06-19T05:20:06;18.10;99.90
9776;DHT22;4927;52.472;13.108;2023-06-19T05:21:09;18.10;99.90
9776;DHT22;4927;52.472;13.108;2023-06-19T05:22:10;18.10;99.90
9776;DHT22;4927;52.472;13.108;2023-06-19T05:23:12;18.10;99.90
9776;DHT22;4927;52.472;13.108;2023-06-19T05:24:14;18.10;99.90
9776;DHT22;4927;52.472;13.108;2023-06-19T05:25:16;18.20;99.90
9776;DHT22;4927;52.472;13.108;2023-06-19T05:26:20;18.20;99.90
9776;DHT22;4927;52.472;13.108;2023-06-19T05:27:22;18.20;99.90
9776;DHT22;4927;52.472;13.108;2023-06-19T05:28:23;18.20;99.90
9776;DHT22;4927;52.472;13.108;2023-06-19T05:29:25;18.20;99.90
9776;DHT22;4927;52.472;13.108;2023-06-19T05:30:27;18.30;99.90
9776;DHT22;4927;52.472;13.108;2023-06-19T05:31:28;18.30;99.90
9776;DHT22;4927;52.472;13.108;2023-06-19T05:32:31;18.30;99.90
9776;DHT22;4927;52.472;13.108;2023-06-19T05:33:33;18.30;99.90
9776;DHT22;4927;52.472;13.108;2023-06-19T05:34:35;18.30;99.90
9776;DHT22;4927;52.472;13.108;2023-06-19T05:35:37;18.30;99.90
9776;DHT22;4927;52.472;13.108;2023-06-19T05:36:39;18.40;99.90
9776;DHT22;4927;52.472;13.108;2023-06-19T05:37:41;18.40;99.90
9776;DHT22;4927;52.472;13.108;2023-06-19T05:38:43;18.40;99.90
9776;DHT22;4927;52.472;13.108;2023-06-19T05:39:44;18.40;99.90
9776;DHT22;4927;52.472;13.108;2023-06-19T05:40:46;18.40;99.90
9776;DHT22;4927;52.472;13.108;2023-06-19T05:41:47;18.50;99.90
9776;DHT22;4927;52.472;13.108;2023-06-19T05:42:49;18.50;99.90
9776;DHT22;4927;52.472;13.108;2023-06-19T05:43:51;18.50;99.90
9776;DHT22;4927;52.472;13.108;2023-06-19T05:44:53;18.50;99.90
9776;DHT22;4927;52.472;13.108;2023-06-19T05:45:55;18.50;99.90
9776;DHT22;4927;52.472;13.108;2023-06-19T05:47:05;18.60;99.90
9776;DHT22;4927;52.472;13.108;2023-06-19T05:48:07;18.60;99.90
9776;DHT22;4927;52.472;13.108;2023-06-19T05:49:08;18.60;99.90
9776;DHT22;4927;52.472;13.108;2023-06-19T05:50:11;18.70;99.90
9776;DHT22;4927;52.472;13.108;2023-06-19T05:51:13;18.70;99.90
9776;DHT22;4927;52.472;13.108;2023-06-19T05:52:15;18.70;99.90
9776;DHT22;4927;52.472;13.108;2023-06-19T05:53:16;18.70;99.90
9776;DHT22;4927;52.472;13.108;2023-06-19T05:54:19;18.70;99.90
9776;DHT22;4927;52.472;13.108;2023-06-19T05:55:20;18.80;99.90
9776;DHT22;4927;52.472;13.108;2023-06-19T05:56:22;18.80;99.90
9776;DHT22;4927;52.472;13.108;2023-06-19T05:57:24;18.80;99.90
9776;DHT22;4927;52.472;13.108;2023-06-19T05:58:26;18.80;99.90
9776;DHT22;4927;52.472;13.108;2023-06-19T05:59:29;18.80;99.90
9776;DHT22;4927;52.472;13.108;2023-06-19T06:00:31;18.90;99.90
9776;DHT22;4927;52.472;13.108;2023-06-19T06:01:33;18.90;99.90
9776;DHT22;4927;52.472;13.108;2023-06-19T06:02:35;18.90;99.90
9776;DHT22;4927;52.472;13.108;2023-06-19T06:03:37;18.90;99.90
9776;DHT22;4927;52.472;13.108;2023-06-19T06:04:38;18.90;99.90
9776;DHT22;4927;52.472;13.108;2023-06-19T06:05:40;18.90;99.90
9776;DHT22;4927;52.472;13.108;2023-06-19T06:06:42;19.00;99.90
9776;DHT22;4927;52.472;13.108;2023-06-19T06:07:43;19.00;99.90
9776;DHT22;4927;52.472;13.108;2023-06-19T06:08:45;19.00;99.90
9776;DHT22;4927;52.472;13.108;2023-06-19T06:09:47;19.00;99.90
9776;DHT22;4927;52.472;13.108;2023-06-19T06:10:48;19.00;99.90
9776;DHT22;4927;52.472;13.108;2023-06-19T06:11:51;19.00;99.90
9776;DHT22;4927;52.472;13.108;2023-06-19T06:12:52;19.00;99.90
9776;DHT22;4927;52.472;13.108;2023-06-19T06:13:54;19.10;99.90
9776;DHT22;4927;52.472;13.108;2023-06-19T06:14:56;19.10;99.90
9776;DHT22;4927;52.472;13.108;2023-06-19T06:15:58;19.10;99.90
9776;DHT22;4927;52.472;13.108;2023-06-19T06:17:00;19.10;99.90
9776;DHT22;4927;52.472;13.108;2023-06-19T06:18:01;19.10;99.90
9776;DHT22;4927;52.472;13.108;2023-06-19T06:19:03;19.20;99.90
9776;DHT22;4927;52.472;13.108;2023-06-19T06:20:05;19.20;99.90
9776;DHT22;4927;52.472;13.108;2023-06-19T06:21:13;19.20;99.90
9776;DHT22;4927;52.472;13.108;2023-06-19T06:22:16;19.30;99.90
9776;DHT22;4927;52.472;13.108;2023-06-19T06:23:18;19.30;99.90
9776;DHT22;4927;52.472;13.108;2023-06-19T06:24:27;19.30;99.90
9776;DHT22;4927;52.472;13.108;2023-06-19T06:25:28;19.30;99.90
9776;DHT22;4927;52.472;13.108;2023-06-19T06:26:31;19.30;99.90
9776;DHT22;4927;52.472;13.108;2023-06-19T06:27:33;19.30;99.90
9776;DHT22;4927;52.472;13.108;2023-06-19T06:28:35;19.30;99.90
9776;DHT22;4927;52.472;13.108;2023-06-19T06:29:37;19.30;99.90
9776;DHT22;4927;52.472;13.108;2023-06-19T06:30:38;19.40;99.90
9776;DHT22;4927;52.472;13.108;2023-06-19T06:31:40;19.40;99.90
9776;DHT22;4927;52.472;13.108;2023-06-19T06:32:42;19.40;99.90
9776;DHT22;4927;52.472;13.108;2023-06-19T06:33:44;19.40;99.90
9776;DHT22;4927;52.472;13.108;2023-06-19T06:34:46;19.40;99.90
9776;DHT22;4927;52.472;13.108;2023-06-19T06:35:47;19.40;99.90
9776;DHT22;4927;52.472;13.108;2023-06-19T06:36:49;19.40;99.90
9776;DHT22;4927;52.472;13.108;2023-06-19T06:37:51;19.50;99.90
9776;DHT22;4927;52.472;13.108;2023-06-19T06:38:53;19.50;99.90
9776;DHT22;4927;52.472;13.108;2023-06-19T06:39:55;19.50;99.90
9776;DHT22;4927;52.472;13.108;2023-06-19T06:40:56;19.60;99.90